• Join FlightAware (Why Join?)
  • Login
  • US Flag 
07:10PM EDT


 

Airport Tracker/Info


-or-


 

Live Flight TrackerFlight Track Log ✈ N5101S ✈ 27-May-2013 ✈ T82 - KIWS

Flight Track Log - Related Links

Times and Time Zones

All times are in EDT time to prevent confusion due to time zone crossing. See the N5101S flight status page for this flight to view local times or setup timezone preferences in your user account.

Time Position Orientation Groundspeed Altitude Reporting Facility
EDT Latitude Longitude Course Direction KTS MPH feet Rate Location/Type
12:21PM 30.1747 -98.8242 90° East 98 113 4,100  Level Houston Center
12:22PM 30.1814 -98.8047 68° East 116 133 4,400 480 Climbing Houston Center
12:22PM 30.1903 -98.7931 49° Northeast 122 140 4,600 420 Climbing Houston Center
12:23PM 30.1900 -98.7603 91° East 105 121 5,000 420 Climbing Houston Center
12:24PM 30.2499 -98.6509 83° East  Level FlightAware Approximate
12:24PM 30.1842 -98.7236 100° East 105 121 5,500  Level Houston Center
12:25PM 30.2500 -98.6092 90° East  Level FlightAware Approximate
12:25PM 30.1778 -98.6939 104° East 105 121 5,900  Level Houston Center
12:26PM 30.2500 -98.5675 90° East  Level FlightAware Approximate
12:27PM 30.1697 -98.6561 104° East 110 127 6,300  Level Houston Center
12:28PM 30.1611 -98.6144 103° East 115 132 6,700 300 Climbing Houston Center
12:29PM 30.1467 -98.5842 119° Southeast 109 125 7,000 120 Climbing Houston Center
12:30PM 30.1414 -98.5461 99° East 123 142 7,000  Level Houston Center
12:31PM 30.1369 -98.4992 96° East 132 152 7,000  Level Houston Center
12:32PM 30.1283 -98.4567 103° East 140 161 7,000  Level Houston Center
12:33PM 30.1192 -98.4139 104° East 133 153 7,000  Level Houston Center
12:34PM 30.1094 -98.3683 104° East 137 158 7,000  Level Houston Center
12:35PM 30.0994 -98.3225 104° East 137 158 7,000  Level Houston Center
12:36PM 30.0922 -98.2817 102° East 132 152 7,000  Level Houston Center
12:37PM 30.0825 -98.2372 104° East 133 153 7,000  Level Houston Center
12:38PM 30.0736 -98.1961 104° East 132 152 7,000  Level Houston Center
12:39PM 30.0647 -98.1542 104° East 133 153 7,000  Level Houston Center
12:40PM 30.0550 -98.1094 104° East 134 154 7,000  Level Houston Center
12:41PM 30.0469 -98.0669 102° East 134 154 7,000  Level Houston Center
12:42PM 30.0367 -98.0211 105° East 137 158 7,000  Level Houston Center
12:43PM 30.0278 -97.9797 104° East 134 154 7,000  Level Houston Center
12:44PM 30.0183 -97.9342 103° East 136 157 7,000  Level Houston Center
12:45PM 30.0089 -97.8925 105° East 135 155 7,000  Level Houston Center
12:46PM 30.0006 -97.8503 103° East 135 155 7,000  Level Houston Center
12:47PM 29.9903 -97.8053 105° East 135 155 7,000  Level Houston Center
12:48PM 29.9814 -97.7647 104° East 133 153 7,000  Level Houston Center
12:49PM 29.9728 -97.7219 103° East 127 146 7,000  Level Houston Center
12:50PM 29.9639 -97.6792 103° East 135 155 7,000  Level Houston Center
12:51PM 29.9539 -97.6369 105° East 129 148 7,000  Level Houston Center
12:52PM 29.9456 -97.5936 103° East 137 158 7,000  Level Houston Center
12:53PM 29.9350 -97.5508 106° East 130 150 7,000  Level Houston Center
12:54PM 29.9283 -97.5144 102° East 134 154 7,000  Level Houston Center
12:55PM 29.9175 -97.4639 104° East 136 157 7,000  Level Houston Center
12:57PM 29.9083 -97.4219 104° East 135 155 7,000  Level Houston Center
12:58PM 29.8997 -97.3808 104° East 133 153 7,000  Level Houston Center
12:59PM 29.8903 -97.3403 105° East 132 152 7,000  Level Houston Center
01:00PM 29.8814 -97.3008 105° East 129 148 7,000  Level Houston Center
01:01PM 29.8725 -97.2581 103° East 133 153 7,000  Level Houston Center
01:02PM 29.8617 -97.2089 104° East 133 153 7,000  Level Houston Center
01:03PM 29.8522 -97.1667 104° East 136 157 7,000  Level Houston Center
01:04PM 29.8431 -97.1256 104° East 134 154 7,000  Level Houston Center
01:04PM 29.8389 -97.1106 108° East 132 152 7,000  Level Houston Center
01:05PM 29.8344 -97.0836 101° East 135 155 7,000  Level Houston Center
01:06PM 29.8256 -97.0469 106° East 135 155 7,000  Level Houston Center
01:07PM 29.8158 -97.0022 104° East 136 157 7,000  Level Houston Center
01:08PM 29.8078 -96.9550 101° East 134 154 7,000  Level Houston Center
01:09PM 29.8111 -96.9186 84° East 141 162 7,000  Level Houston Center
01:09PM 29.8108 -96.9039 91° East 140 161 7,000  Level Houston Center
01:10PM 29.8094 -96.8706 93° East 138 159 7,000  Level Houston Center
01:11PM 29.8117 -96.8200 87° East 138 159 7,000  Level Houston Center
01:12PM 29.8119 -96.7703 90° East 143 165 7,000  Level Houston Center
01:13PM 29.8128 -96.7267 89° East 138 159 7,000  Level Houston Center
01:14PM 29.8117 -96.6900 92° East 136 157 7,000  Level Houston Center
01:14PM 29.8133 -96.6831 75° East 137 158 7,000  Level Houston Center
01:15PM 29.8122 -96.6442 92° East 137 158 7,000  Level Houston Center
01:15PM 29.8133 -96.6297 85° East 139 160 7,000  Level Houston Center
01:16PM 29.8122 -96.5939 92° East 136 157 7,000  Level Houston Center
01:17PM 29.8128 -96.5506 89° East 140 161 7,000 -120 Level Houston Center
01:18PM 29.8133 -96.5069 89° East 141 162 6,800 -240 Descending Houston Center
01:18PM 29.8144 -96.4958 83° East 143 165 6,700 -300 Descending Houston Center
01:19PM 29.8133 -96.4567 92° East 151 174 6,500 -300 Descending Houston Center
01:19PM 29.8142 -96.4481 84° East 148 170 6,400 -420 Descending Houston Center
01:20PM 29.8136 -96.4083 91° East 154 177 6,100 -300 Descending Houston Center
01:20PM 29.8144 -96.3975 85° East 156 180 6,100 -300 Level Houston Center
01:21PM 29.8136 -96.3578 91° East 151 174 5,800 -420 Descending Houston Center
01:21PM 29.8153 -96.3414 83° East 147 169 5,700 -360 Descending Houston Center
01:22PM 29.8153 -96.3047 90° East 147 169 5,400 -420 Descending Houston Center
01:22PM 29.8161 -96.2947 85° East 145 167 5,300 -420 Descending Houston Center
01:23PM 29.8156 -96.2567 91° East 148 170 5,000 -300 Descending Houston Center
01:23PM 29.8164 -96.2461 85° East 151 174 5,000  Level Houston Center
01:24PM 29.8142 -96.2158 95° East 139 160 5,000  Level Houston Center
01:24PM 29.8156 -96.2025 83° East 139 160 5,000  Level Houston Center
01:25PM 29.8147 -96.1725 92° East 134 154 5,000  Level Houston Center
01:25PM 29.8164 -96.1603 81° East 134 154 5,000 -120 Level Houston Center
01:26PM 29.8150 -96.1267 93° East 140 161 4,900 -120 Descending Houston Center
01:26PM 29.8156 -96.1144 87° East 141 162 4,900 -420 Level Houston Center
01:27PM 29.8150 -96.0786 91° East 150 173 4,500 -540 Descending Houston Center
01:28PM 29.8164 -96.0661 83° East 152 175 4,400 -420 Descending Houston Center
01:28PM 29.8147 -96.0281 93° East 152 175 4,100 -420 Descending Houston Center
01:29PM 29.8161 -96.0089 85° East 150 173 4,000 -240 Descending Houston Center
01:29PM 29.8172 -95.9822 87° East 139 160 3,900 -420 Descending Houston Center
01:30PM 29.8172 -95.9628 90° East 142 163 3,600 -720 Descending Houston Center
01:30PM 29.8169 -95.9317 91° East 153 176 3,200 -720 Descending Houston Center
01:31PM 29.8169 -95.9136 90° East 150 173 2,900 -240 Descending Houston Center
01:31PM 29.8175 -95.8883 89° East 127 146 3,000 60 Climbing Houston Center
01:32PM 29.8172 -95.8722 91° East 137 158 3,000  Level Houston Center
01:33PM 29.8175 -95.8325 90° East 134 154 3,000  Level Houston Center